This is the latest recevied weather packets stored in our database for station/object N5SRF. If no packets are shown the sender has not sent any weather packets the latest 10 day(s).
| Time | Temp. | Humidity | Pressure | Rain* | Wind** | Luminosity | Snow |
|---|---|---|---|---|---|---|---|
| 1787876820 | 30.56° C | 75% | 1016.3 hPa | 0 mm | - | 16 W/m² | - |
| 1787876516 | 30.56° C | 75% | 1016.4 hPa | 0 mm | - | 26 W/m² | - |
| 1787876214 | 30.56° C | 75% | 1016.4 hPa | 0 mm | - | 41 W/m² | - |
| 1787875909 | 30.56° C | 74% | 1016.3 hPa | 0 mm | - | 52 W/m² | - |
| 1787875609 | 30.56° C | 73% | 1016.1 hPa | 0 mm | - | 62 W/m² | - |
| 1787875304 | 30.56° C | 74% | 1016.2 hPa | 0 mm | - | 77 W/m² | - |
| 1787875002 | 31.11° C | 72% | 1016.1 hPa | 0 mm | - | 81 W/m² | - |
| 1787874697 | 31.11° C | 72% | 1016 hPa | 0 mm | - | 95 W/m² | - |
| 1787874395 | 31.11° C | 72% | 1015.7 hPa | 0 mm | - | 121 W/m² | - |
| 1787874090 | 31.11° C | 73% | 1015.8 hPa | 0 mm | - | 119 W/m² | - |
| 1787873785 | 31.11° C | 72% | 1015.7 hPa | 0 mm | - | 106 W/m² | - |
| 1787873480 | 31.11° C | 72% | 1015.9 hPa | 0 mm | - | 88 W/m² | - |
| 1787873175 | 31.67° C | 71% | 1016.3 hPa | 0 mm | - | 78 W/m² | - |
| 1787872873 | 32.22° C | 70% | 1016.3 hPa | 0 mm | - | 61 W/m² | - |
| 1787872569 | 32.78° C | 70% | 1016.4 hPa | 0 mm | - | 60 W/m² | - |
| 1787872264 | 32.78° C | 68% | 1016 hPa | 0 mm | - | 85 W/m² | - |
| 1787871963 | 32.78° C | 68% | 1016.1 hPa | 0 mm | - | 55 W/m² | - |
| 1787871659 | 32.78° C | 67% | 1016.1 hPa | 0 mm | - | 51 W/m² | - |
| 1787871354 | 32.78° C | 66% | 1016.2 hPa | 0 mm | - | 57 W/m² | - |
| 1787871050 | 32.78° C | 66% | 1016 hPa | 0 mm | - | 60 W/m² | - |
| 1787870749 | 33.33° C | 66% | 1016.1 hPa | 0 mm | - | 55 W/m² | - |
| 1787870444 | 33.33° C | 65% | 1015.9 hPa | 0 mm | - | 60 W/m² | - |
| 1787870139 | 33.33° C | 65% | 1016 hPa | 0 mm | - | 58 W/m² | - |
| 1787869839 | 33.89° C | 65% | 1015.6 hPa | 0 mm | - | 90 W/m² | - |
| 1787869538 | 33.89° C | 64% | 1016.1 hPa | 0 mm | - | 92 W/m² | - |
* Rain latest hour (hover to see other rain measurements)
** Current wind speed in m/s (hover to see current wind gust speed)